Istanbul, Turkey

11:53 PM EET on November 24, 2014 (GMT +0200)
Ataturk | Change Station
CLOSE
Current Station
Airport
Location: Istanbul,
Elevation: 121 ft
Nearby Weather Stations

Elev 121 ft 40.98 °N, 28.81 °E | Updated 33 minutes ago

Light Rain
Light Rain
46 °F
Feels Like 39 °F
N
18
Wind Variable Wind from North

Today
High -- | Low -- °F
--% Chance of Precip.
Yesterday
High -- | Low -- °F
Precip. -- in
7:02 AM 4:40 PM
Waxing Crescent, 7% visible
Pressure 30.18 in
Visibility 5.0 miles
Clouds Scattered Clouds 2500 ft
Overcast 7000 ft
Windchill 39 °F
Dew Point 41 °F
Humidity 81%
Rainfall 0.00 in
Snow Depth Not available.
UV 0 out of 12
Pollen Not available.
Air Quality Not available.
Flu Activity Not available.
METAR LTBA 242120Z 01016KT 8000 -RA SCT025 OVC070 08/05 Q1022 NOSIG

More Conditions Fewer Conditions

Pressure 30.18 in
Visibility 5.0 miles
Clouds Scattered Clouds 2500 ft
Overcast 7000 ft
Windchill 39 °F
Dew Point 41 °F
Humidity 81%
Rainfall 0.00 in
Snow Depth Not available.
UV 0 out of 12
Pollen Not available.
Air Quality Not available.
Flu Activity Not available.
METAR LTBA 242120Z 01016KT 8000 -RA SCT025 OVC070 08/05 Q1022 NOSIG

More Conditions Fewer Conditions

10-Day Weather Forecast

Almanac

Astronomy

Nov. 24, 2014 Rise Set
Actual Time
Civil Twilight
Nautical Twilight
Astronomical Twilight
Moon
Length of Visible Light
Length of Day
Tomorrow will be .
, % of the Moon is Illuminated

Today's Extremes

Country Highs Country Lows

Community

WunderPhotos

Upload Photos

1,773,415 photos uploaded!

WunderBlogs® & News

Nearby

Air Quality

  Air Quality AQ Index Pollutant
Not available.

Snow Depth

Station Depth Elevation

Earthquake Activity

City Distance Mag. Time & Date
Minimum magnitude displayed is 2.5.

Coastal Water Temperatures

Place Temperature

Nearby Weather Stations